Time;durP1;ratioP1;P1;durP2;ratioP2;P2;SDS_P1;SDS_P2;PMS_P1;PMS_P2;Temp;Humidity;BMP_temperature;BMP_pressure;BME280_temperature;BME280_humidity;BME280_pressure;Samples;Min_cycle;Max_cycle;Signal;HPM_P1;HPM_P2
2022/04/29 00:00:07;;;;;;;8.73;7.00;;;9.70;98.70;;;;;;5029406;28;20833;-71
2022/04/29 00:02:34;;;;;;;8.63;7.20;;;9.70;98.60;;;;;;5012329;28;21047;-71
2022/04/29 00:04:59;;;;;;;8.27;6.20;;;9.70;99.00;;;;;;5029558;28;20426;-70
2022/04/29 00:07:25;;;;;;;10.33;7.17;;;9.70;98.70;;;;;;5028659;28;20858;-71
2022/04/29 00:09:50;;;;;;;9.27;6.93;;;9.70;98.70;;;;;;5011070;28;20223;-72
2022/04/29 00:12:16;;;;;;;11.40;7.40;;;9.70;98.90;;;;;;5028657;28;20194;-70
2022/04/29 00:14:41;;;;;;;8.70;7.03;;;9.70;99.00;;;;;;5028648;28;20207;-71
2022/04/29 00:17:08;;;;;;;11.00;7.03;;;9.60;99.20;;;;;;5010315;28;20199;-70
2022/04/29 00:19:33;;;;;;;9.93;6.27;;;9.60;99.40;;;;;;5028435;28;20243;-70
2022/04/29 00:21:59;;;;;;;9.47;6.80;;;9.50;99.50;;;;;;5028677;28;20455;-70
2022/04/29 00:24:25;;;;;;;9.03;7.30;;;9.60;99.30;;;;;;5028469;28;20222;-70
2022/04/29 00:26:51;;;;;;;8.70;6.70;;;9.50;99.40;;;;;;5028257;28;20526;-70
2022/04/29 00:29:17;;;;;;;8.93;6.33;;;9.50;99.20;;;;;;5028219;28;20439;-70
2022/04/29 00:31:42;;;;;;;10.73;7.37;;;9.50;99.20;;;;;;5010709;28;20330;-69
2022/04/29 00:34:08;;;;;;;9.30;6.53;;;9.60;99.30;;;;;;5029507;28;20184;-70
2022/04/29 00:36:33;;;;;;;12.40;7.53;;;9.50;99.20;;;;;;5014315;28;20221;-72
2022/04/29 00:38:59;;;;;;;10.60;7.23;;;9.50;99.30;;;;;;5013946;28;20212;-70
2022/04/29 00:41:25;;;;;;;11.20;7.23;;;9.40;99.40;;;;;;5014154;28;20193;-70
2022/04/29 00:44:07;;;;;;;8.73;7.20;;;9.40;99.30;;;;;;5031939;28;20187;-70
2022/04/29 00:46:43;;;;;;;8.17;6.50;;;9.40;99.10;;;;;;5031913;28;20192;-70
2022/04/29 00:49:11;;;;;;;9.63;7.50;;;9.40;98.90;;;;;;5031906;28;20451;-70
2022/04/29 00:51:39;;;;;;;9.90;6.97;;;9.50;98.80;;;;;;5031863;28;20426;-70
2022/04/29 00:54:09;;;;;;;9.07;7.30;;;9.50;98.40;;;;;;5031751;28;20487;-70
2022/04/29 00:56:38;;;;;;;8.03;7.13;;;9.60;98.40;;;;;;5031918;28;20904;-71
2022/04/29 00:59:34;;;;;;;9.80;7.40;;;9.60;98.20;;;;;;5031701;28;20446;-70
2022/04/29 01:02:02;;;;;;;8.77;7.30;;;9.60;98.20;;;;;;5013716;28;20940;-70
2022/04/29 01:04:33;;;;;;;11.10;6.97;;;9.60;98.60;;;;;;5032098;28;20419;-71
2022/04/29 01:06:58;;;;;;;8.43;6.70;;;9.60;98.40;;;;;;5031937;28;20416;-71
2022/04/29 01:09:24;;;;;;;8.83;6.73;;;9.60;98.60;;;;;;5031801;28;20426;-71
2022/04/29 01:11:51;;;;;;;11.33;7.50;;;9.60;98.60;;;;;;5032067;28;20196;-73
2022/04/29 01:14:17;;;;;;;12.07;6.90;;;9.60;98.90;;;;;;5032075;28;20185;-71
2022/04/29 01:16:43;;;;;;;9.77;7.90;;;9.60;99.90;;;;;;5032036;28;20431;-71
2022/04/29 01:19:08;;;;;;;11.37;7.90;;;9.50;99.90;;;;;;5031860;28;20480;-72
2022/04/29 01:21:34;;;;;;;11.10;7.50;;;9.40;99.90;;;;;;5032011;28;20186;-72
2022/04/29 01:24:00;;;;;;;12.27;7.57;;;9.30;99.90;;;;;;5032098;28;20657;-71
2022/04/29 01:26:25;;;;;;;9.23;7.50;;;9.20;99.90;;;;;;5013846;28;20208;-72
2022/04/29 01:28:52;;;;;;;13.70;7.17;;;9.20;99.90;;;;;;5013911;28;20736;-71
2022/04/29 01:31:22;;;;;;;8.77;7.50;;;9.20;99.90;;;;;;5031837;28;20188;-71
2022/04/29 01:33:49;;;;;;;13.13;7.50;;;9.20;99.90;;;;;;5031815;28;20434;-71
2022/04/29 01:36:14;;;;;;;9.70;7.80;;;9.10;99.90;;;;;;5013719;28;20517;-71
2022/04/29 01:38:40;;;;;;;10.33;6.93;;;9.10;99.90;;;;;;5031648;28;20530;-73
2022/04/29 01:41:07;;;;;;;9.57;7.50;;;9.10;99.90;;;;;;5031678;28;20219;-69
2022/04/29 01:43:34;;;;;;;12.87;7.70;;;9.10;99.90;;;;;;5031736;28;20422;-72
2022/04/29 01:46:00;;;;;;;10.27;7.60;;;9.10;99.90;;;;;;5030996;28;20438;-71
2022/04/29 01:48:27;;;;;;;11.30;7.67;;;9.00;99.90;;;;;;5031143;28;21012;-70
2022/04/29 01:50:53;;;;;;;12.77;7.57;;;9.10;99.90;;;;;;5013316;28;20484;-72
2022/04/29 01:53:18;;;;;;;15.57;9.30;;;9.10;99.90;;;;;;5013056;28;20419;-70
2022/04/29 01:55:44;;;;;;;12.30;9.20;;;9.00;99.90;;;;;;5030938;28;20496;-70
2022/04/29 01:58:10;;;;;;;12.77;8.97;;;9.10;99.90;;;;;;5030805;28;20633;-71
2022/04/29 02:00:35;;;;;;;13.03;8.73;;;9.10;99.90;;;;;;5012682;28;20269;-70
2022/04/29 02:03:01;;;;;;;11.27;7.87;;;9.00;99.90;;;;;;5030680;28;20184;-70
2022/04/29 02:05:27;;;;;;;14.23;8.27;;;9.00;99.90;;;;;;5030490;28;20196;-71
2022/04/29 02:07:52;;;;;;;10.33;8.37;;;9.00;99.90;;;;;;5030235;28;20250;-70
2022/04/29 02:10:18;;;;;;;15.73;8.60;;;8.90;99.90;;;;;;5030477;28;20196;-71
2022/04/29 02:12:43;;;;;;;10.17;7.43;;;8.90;99.90;;;;;;5031228;28;20361;-71
2022/04/29 02:15:10;;;;;;;10.30;8.10;;;8.90;99.90;;;;;;5030546;28;20184;-71
2022/04/29 02:17:35;;;;;;;11.80;7.90;;;8.80;99.90;;;;;;5012740;28;20212;-71
2022/04/29 02:20:01;;;;;;;8.83;7.87;;;8.60;99.90;;;;;;5030515;28;20474;-72
2022/04/29 02:22:27;;;;;;;11.23;8.40;;;8.40;99.90;;;;;;5030477;28;20185;-71
2022/04/29 02:24:52;;;;;;;11.10;8.57;;;8.20;99.90;;;;;;5030172;28;20192;-70
2022/04/29 02:27:18;;;;;;;12.40;8.47;;;8.10;99.90;;;;;;5012601;28;20697;-70
2022/04/29 02:29:44;;;;;;;9.37;7.87;;;8.00;99.90;;;;;;5030305;28;20195;-71
2022/04/29 02:32:09;;;;;;;9.93;8.20;;;8.00;99.90;;;;;;5029884;28;20203;-71
2022/04/29 02:34:36;;;;;;;9.93;8.60;;;7.90;99.90;;;;;;5030006;28;20427;-70
2022/04/29 02:37:02;;;;;;;8.20;7.37;;;7.90;99.90;;;;;;5011842;28;20267;-71
2022/04/29 02:39:28;;;;;;;10.60;8.47;;;7.80;99.90;;;;;;5029728;28;20474;-71
2022/04/29 02:41:54;;;;;;;10.63;9.20;;;7.60;99.90;;;;;;5029767;28;20426;-72
2022/04/29 02:44:20;;;;;;;9.47;7.70;;;7.60;99.90;;;;;;5029814;28;20559;-69
2022/04/29 02:49:31;;;;;;;10.27;7.90;;;7.40;99.90;;;;;;5029829;28;20806;-70
2022/04/29 02:51:57;;;;;;;9.50;8.40;;;7.40;99.90;;;;;;5030587;28;20420;-70
2022/04/29 02:54:23;;;;;;;11.47;8.57;;;7.30;99.90;;;;;;5030525;28;20566;-69
2022/04/29 02:56:50;;;;;;;13.87;8.20;;;7.20;99.90;;;;;;5028976;28;20188;-70
2022/04/29 02:59:17;;;;;;;11.20;8.70;;;7.10;99.90;;;;;;5029329;28;20447;-70
2022/04/29 03:01:43;;;;;;;11.50;8.53;;;7.10;99.90;;;;;;5029418;28;20421;-70
2022/04/29 03:04:09;;;;;;;9.03;8.00;;;7.00;99.90;;;;;;5029419;28;20423;-70
2022/04/29 03:06:34;;;;;;;8.87;7.73;;;7.00;99.90;;;;;;5029298;28;20279;-70
2022/04/29 03:09:00;;;;;;;13.30;8.10;;;6.90;99.90;;;;;;5011497;28;20216;-69
2022/04/29 03:11:25;;;;;;;11.57;8.80;;;6.90;99.90;;;;;;5029322;28;20184;-70
2022/04/29 03:13:51;;;;;;;13.60;9.80;;;6.80;99.90;;;;;;5029279;28;20185;-70
2022/04/29 03:16:16;;;;;;;12.50;8.97;;;6.80;99.90;;;;;;5029089;28;20238;-70
2022/04/29 03:18:44;;;;;;;10.07;8.40;;;6.80;99.90;;;;;;5028968;28;20211;-72
2022/04/29 03:21:10;;;;;;;14.23;9.70;;;6.70;99.90;;;;;;5011025;28;20677;-71
2022/04/29 03:23:36;;;;;;;10.23;9.07;;;6.80;99.90;;;;;;5028984;28;20422;-70
2022/04/29 03:26:03;;;;;;;10.87;9.07;;;6.70;99.90;;;;;;5028850;28;20439;-70
2022/04/29 03:28:29;;;;;;;16.87;9.87;;;6.70;99.90;;;;;;5028953;28;20439;-71
2022/04/29 03:30:55;;;;;;;12.40;10.67;;;6.60;99.90;;;;;;5010989;28;21028;-70
2022/04/29 03:33:20;;;;;;;12.77;9.40;;;6.60;99.90;;;;;;5029060;28;20185;-71
2022/04/29 03:35:47;;;;;;;12.73;9.10;;;6.50;99.90;;;;;;5029223;28;20184;-71
2022/04/29 03:38:13;;;;;;;12.40;9.47;;;6.50;99.90;;;;;;5029095;28;20204;-72
2022/04/29 03:40:40;;;;;;;12.30;8.93;;;6.50;99.90;;;;;;5028759;28;20617;-72
2022/04/29 03:43:06;;;;;;;13.07;9.60;;;6.50;99.90;;;;;;5011169;28;20246;-72
2022/04/29 03:45:31;;;;;;;12.37;10.33;;;6.50;99.90;;;;;;5011004;28;20939;-71
2022/04/29 03:47:57;;;;;;;16.57;9.40;;;6.50;99.90;;;;;;5010941;28;20212;-71
2022/04/29 03:50:25;;;;;;;11.77;9.57;;;6.40;99.90;;;;;;5028903;28;20228;-72
2022/04/29 03:52:52;;;;;;;11.47;8.73;;;6.40;99.90;;;;;;5029121;28;20437;-71
2022/04/29 03:55:24;;;;;;;10.93;8.90;;;6.40;99.90;;;;;;5028989;28;20439;-70
2022/04/29 03:57:50;;;;;;;13.67;9.40;;;6.40;99.90;;;;;;5028939;28;20927;-72
2022/04/29 04:00:16;;;;;;;11.37;9.50;;;6.60;99.90;;;;;;5011059;28;20517;-72
2022/04/29 04:02:42;;;;;;;12.33;9.63;;;6.50;99.90;;;;;;5010971;28;20234;-71
2022/04/29 04:05:09;;;;;;;12.00;10.23;;;6.40;99.90;;;;;;5028873;28;20419;-70
2022/04/29 04:07:35;;;;;;;12.13;10.37;;;6.40;99.90;;;;;;5028866;28;20519;-70
2022/04/29 04:10:02;;;;;;;18.07;11.07;;;6.40;99.90;;;;;;5031541;28;20423;-70
2022/04/29 04:12:40;;;;;;;24.47;13.03;;;6.40;99.90;;;;;;5015308;28;20431;-72
2022/04/29 04:15:07;;;;;;;13.60;10.27;;;6.40;99.90;;;;;;5015400;28;20431;-71
2022/04/29 04:17:33;;;;;;;12.37;9.10;;;6.40;99.90;;;;;;5033158;28;20505;-71
2022/04/29 04:19:59;;;;;;;13.50;9.60;;;6.40;99.90;;;;;;5033440;28;20467;-71
2022/04/29 04:22:25;;;;;;;11.10;9.30;;;6.40;99.90;;;;;;5017968;28;20217;-71
2022/04/29 04:24:50;;;;;;;11.33;10.00;;;6.40;99.90;;;;;;5016205;28;20905;-71
2022/04/29 04:27:17;;;;;;;12.93;10.10;;;6.30;99.90;;;;;;5034160;28;20421;-72
2022/04/29 04:29:42;;;;;;;13.67;9.40;;;6.40;99.90;;;;;;5035420;28;20271;-72
2022/04/29 04:32:08;;;;;;;11.23;9.43;;;6.40;99.90;;;;;;5035115;28;20510;-73
2022/04/29 04:34:53;;;;;;;15.30;9.20;;;6.40;99.90;;;;;;5034927;28;20191;-71
2022/04/29 04:37:26;;;;;;;14.07;8.93;;;6.40;99.90;;;;;;5033926;28;20418;-71
2022/04/29 04:39:53;;;;;;;14.27;10.17;;;6.50;99.90;;;;;;5014793;28;21344;-71
2022/04/29 04:42:19;;;;;;;11.77;9.40;;;6.60;99.90;;;;;;5032079;28;20813;-71
2022/04/29 04:44:49;;;;;;;12.50;9.57;;;6.60;99.90;;;;;;5032201;28;20423;-70
2022/04/29 04:47:16;;;;;;;9.87;8.87;;;6.70;99.90;;;;;;5032138;28;20447;-73
2022/04/29 04:49:42;;;;;;;11.87;9.77;;;6.70;99.90;;;;;;5031998;28;20907;-71
2022/04/29 04:52:08;;;;;;;13.50;10.10;;;6.80;99.90;;;;;;5032068;28;20415;-70
2022/04/29 04:54:34;;;;;;;11.40;8.87;;;6.90;99.90;;;;;;5032112;28;20876;-72
2022/04/29 04:57:00;;;;;;;14.37;10.00;;;7.00;99.90;;;;;;5031939;28;20506;-72
2022/04/29 04:59:26;;;;;;;13.90;10.00;;;7.00;99.90;;;;;;5014019;28;20510;-71
2022/04/29 05:01:52;;;;;;;10.27;9.17;;;7.00;99.90;;;;;;5031935;28;20250;-72
2022/04/29 05:04:17;;;;;;;14.30;9.20;;;6.90;99.90;;;;;;5031685;28;20188;-72
2022/04/29 05:06:43;;;;;;;10.73;9.10;;;7.00;99.90;;;;;;5031480;28;20227;-71
2022/04/29 05:09:09;;;;;;;11.03;9.70;;;7.20;99.90;;;;;;5031436;28;20204;-72
2022/04/29 05:11:35;;;;;;;29.07;10.57;;;7.30;99.90;;;;;;5031256;28;20642;-72
2022/04/29 05:14:00;;;;;;;19.00;8.73;;;7.40;99.90;;;;;;5030960;28;20417;-72
2022/04/29 05:16:27;;;;;;;13.10;9.30;;;7.50;99.90;;;;;;5030811;28;20563;-71
2022/04/29 05:18:52;;;;;;;14.67;11.10;;;7.50;99.90;;;;;;5012715;28;20667;-72
2022/04/29 05:21:18;;;;;;;24.63;13.83;;;7.40;99.90;;;;;;5030587;28;20471;-71
2022/04/29 05:23:44;;;;;;;30.73;16.87;;;7.50;99.90;;;;;;5030839;28;20201;-71
2022/04/29 05:26:10;;;;;;;22.90;16.07;;;7.70;99.90;;;;;;5012302;28;20475;-70
2022/04/29 05:28:36;;;;;;;15.70;11.67;;;8.00;99.90;;;;;;5030424;28;20200;-71
2022/04/29 05:31:02;;;;;;;14.90;10.23;;;8.30;99.90;;;;;;5030654;28;20223;-71
2022/04/29 05:33:30;;;;;;;12.60;9.90;;;8.40;99.90;;;;;;5030550;28;20677;-70
2022/04/29 05:35:56;;;;;;;12.23;9.43;;;8.60;99.90;;;;;;5030542;28;20424;-71
2022/04/29 05:38:22;;;;;;;49.67;13.57;;;8.90;99.90;;;;;;5012286;28;20453;-71
2022/04/29 05:43:32;;;;;;;15.40;10.30;;;9.20;99.90;;;;;;5030417;28;20197;-72
2022/04/29 05:45:57;;;;;;;12.00;9.60;;;9.30;99.90;;;;;;5030202;28;20510;-71
2022/04/29 05:48:23;;;;;;;13.53;9.40;;;9.50;99.90;;;;;;5030213;28;20205;-74
2022/04/29 05:50:49;;;;;;;12.10;9.90;;;9.50;99.90;;;;;;5030196;28;20185;-71
2022/04/29 05:53:15;;;;;;;12.70;10.87;;;9.60;99.90;;;;;;5030156;28;20188;-72
2022/04/29 05:55:42;;;;;;;11.90;9.87;;;9.60;99.90;;;;;;5030169;28;20202;-72
2022/04/29 05:58:08;;;;;;;17.37;10.20;;;9.70;99.90;;;;;;5029936;28;20516;-72
2022/04/29 06:00:35;;;;;;;11.00;9.00;;;9.80;99.90;;;;;;5029900;28;20538;-73
2022/04/29 06:03:01;;;;;;;17.00;13.13;;;9.90;99.90;;;;;;5011923;28;20426;-72
2022/04/29 06:05:27;;;;;;;25.27;14.03;;;10.00;99.90;;;;;;5029752;28;20477;-71
2022/04/29 06:07:53;;;;;;;25.63;13.77;;;9.90;99.90;;;;;;5011588;28;20449;-71
2022/04/29 06:10:19;;;;;;;15.63;13.40;;;10.00;99.90;;;;;;5029587;28;20785;-70
2022/04/29 06:12:46;;;;;;;14.77;12.87;;;10.00;99.90;;;;;;5029663;28;20419;-70
2022/04/29 06:15:18;;;;;;;17.23;12.80;;;10.00;99.90;;;;;;5011507;28;20957;-71
2022/04/29 06:17:45;;;;;;;15.93;12.47;;;10.00;99.90;;;;;;5029489;28;20836;-72
2022/04/29 06:20:11;;;;;;;18.70;12.87;;;10.20;99.90;;;;;;5029359;28;20492;-70
2022/04/29 06:22:47;;;;;;;13.27;10.10;;;10.20;99.90;;;;;;5029416;28;20473;-71
2022/04/29 06:25:13;;;;;;;17.93;9.93;;;10.30;99.90;;;;;;5029279;28;20940;-72
2022/04/29 06:27:39;;;;;;;13.87;10.90;;;10.40;99.90;;;;;;5029661;28;20490;-72
2022/04/29 06:30:05;;;;;;;12.77;9.90;;;10.50;99.90;;;;;;5029991;28;20486;-72
2022/04/29 06:32:31;;;;;;;12.27;10.33;;;10.70;99.90;;;;;;5011254;28;20903;-71
2022/04/29 06:34:57;;;;;;;13.23;9.60;;;10.90;99.90;;;;;;5030047;28;20458;-71
2022/04/29 06:37:22;;;;;;;19.77;10.37;;;11.20;99.90;;;;;;5029626;28;20238;-71
2022/04/29 06:39:48;;;;;;;16.13;9.70;;;11.40;99.90;;;;;;5030467;28;20209;-71
2022/04/29 06:42:14;;;;;;;12.83;8.40;;;11.70;99.90;;;;;;5013889;28;20656;-72
2022/04/29 06:44:39;;;;;;;14.50;11.00;;;12.00;99.90;;;;;;5030063;28;20189;-71
2022/04/29 06:47:05;;;;;;;22.47;14.70;;;12.20;99.90;;;;;;5029917;28;20178;-72
2022/04/29 06:49:31;;;;;;;23.60;17.07;;;12.60;99.90;;;;;;5029857;28;20186;-71
2022/04/29 06:51:57;;;;;;;20.50;15.10;;;12.80;99.90;;;;;;5029842;28;20739;-70
2022/04/29 06:54:22;;;;;;;12.57;10.00;;;12.90;99.90;;;;;;5011608;28;21050;-72
2022/04/29 06:56:48;;;;;;;19.70;10.90;;;13.30;99.80;;;;;;5029800;28;20191;-73
2022/04/29 06:59:13;;;;;;;12.70;10.37;;;13.30;99.80;;;;;;5029182;28;20208;-71
2022/04/29 07:01:39;;;;;;;11.73;9.53;;;13.40;99.70;;;;;;5028619;28;20186;-72
2022/04/29 07:04:05;;;;;;;12.70;10.30;;;13.50;99.90;;;;;;5028541;28;20181;-71
2022/04/29 07:06:31;;;;;;;14.93;10.10;;;13.50;99.90;;;;;;5028087;28;20176;-72
2022/04/29 07:08:57;;;;;;;11.40;8.93;;;13.50;99.90;;;;;;5027978;28;20499;-73
2022/04/29 07:11:25;;;;;;;10.30;8.57;;;13.60;99.90;;;;;;5010448;28;20458;-71
2022/04/29 07:13:52;;;;;;;10.70;8.97;;;13.70;99.90;;;;;;5028492;28;20500;-72
2022/04/29 07:16:17;;;;;;;11.60;9.80;;;13.90;99.90;;;;;;5010436;28;20437;-72
2022/04/29 07:18:44;;;;;;;11.73;8.83;;;14.00;99.90;;;;;;5028370;28;21360;-72
2022/04/29 07:21:09;;;;;;;12.43;8.50;;;14.10;99.90;;;;;;5028221;28;20463;-72
2022/04/29 07:23:36;;;;;;;14.00;9.67;;;14.30;99.90;;;;;;5028310;28;20424;-71
2022/04/29 07:26:02;;;;;;;14.43;9.73;;;14.30;99.90;;;;;;5028460;28;20198;-71
2022/04/29 07:28:27;;;;;;;8.67;7.67;;;14.40;98.40;;;;;;5028286;28;21007;-72
2022/04/29 07:30:53;;;;;;;12.50;8.57;;;14.50;98.80;;;;;;5028234;28;20419;-72
2022/04/29 07:33:19;;;;;;;11.73;9.40;;;14.80;97.70;;;;;;5028175;28;20295;-71
2022/04/29 07:43:57;;;;;;;14.73;8.13;;;15.10;96.20;;;;;;5012826;28;20406;-71
2022/04/29 07:46:23;;;;;;;9.27;7.93;;;15.30;96.90;;;;;;5010026;28;20423;-72
2022/04/29 07:48:49;;;;;;;12.03;8.10;;;15.60;96.50;;;;;;5027928;28;20214;-71
2022/04/29 07:51:14;;;;;;;9.00;8.10;;;15.70;96.90;;;;;;5028002;28;20189;-72
2022/04/29 07:53:40;;;;;;;7.13;6.43;;;15.80;97.60;;;;;;5027885;28;20216;-72
2022/04/29 07:56:06;;;;;;;10.73;7.57;;;16.00;97.70;;;;;;5027975;28;20288;-71
2022/04/29 07:58:31;;;;;;;9.73;7.87;;;16.10;97.90;;;;;;5027660;28;20208;-72
2022/04/29 08:00:57;;;;;;;8.80;6.30;;;16.20;95.90;;;;;;5009595;28;20212;-72
2022/04/29 08:03:23;;;;;;;11.70;6.30;;;16.10;93.50;;;;;;5027795;28;20196;-73
2022/04/29 08:05:52;;;;;;;10.27;6.37;;;16.40;95.50;;;;;;5027350;28;20268;-72
2022/04/29 08:08:19;;;;;;;9.57;6.60;;;16.50;95.50;;;;;;5027218;28;20480;-72
2022/04/29 08:10:45;;;;;;;10.30;8.00;;;16.80;93.90;;;;;;5027094;28;20430;-72
2022/04/29 08:13:11;;;;;;;8.00;6.90;;;16.90;94.60;;;;;;5027244;28;20411;-72
2022/04/29 08:15:37;;;;;;;8.63;6.47;;;17.30;94.50;;;;;;5027156;28;20435;-72
2022/04/29 08:18:05;;;;;;;7.70;6.00;;;17.20;91.10;;;;;;5027181;28;20812;-72
2022/04/29 08:20:31;;;;;;;4.33;3.93;;;17.00;93.20;;;;;;5009219;28;20525;-71
2022/04/29 08:22:57;;;;;;;4.27;3.87;;;17.00;79.60;;;;;;5027469;28;21009;-71
2022/04/29 08:25:22;;;;;;;7.10;4.03;;;17.10;73.60;;;;;;5027310;28;20194;-72
2022/04/29 08:27:50;;;;;;;4.23;3.47;;;17.00;63.30;;;;;;5027206;28;20241;-73
2022/04/29 08:30:16;;;;;;;7.60;3.47;;;17.20;65.20;;;;;;5009719;28;20711;-72
2022/04/29 08:32:44;;;;;;;6.30;3.47;;;17.40;64.70;;;;;;5027985;28;20438;-71
2022/04/29 08:35:10;;;;;;;5.53;3.67;;;17.60;61.80;;;;;;5027811;28;21070;-72
2022/04/29 08:37:37;;;;;;;4.20;3.80;;;17.70;61.40;;;;;;5010064;28;20441;-71
2022/04/29 08:40:05;;;;;;;3.83;3.40;;;17.70;62.10;;;;;;5027929;28;20457;-71
2022/04/29 08:42:36;;;;;;;4.30;3.50;;;18.00;65.60;;;;;;5028160;28;20436;-72
2022/04/29 08:45:02;;;;;;;3.70;3.40;;;18.20;61.40;;;;;;5029683;28;20420;-72
2022/04/29 08:47:29;;;;;;;4.07;3.53;;;18.20;57.80;;;;;;5030359;28;20446;-72
2022/04/29 08:49:55;;;;;;;7.27;3.97;;;18.30;58.90;;;;;;5030556;28;20429;-72
2022/04/29 08:52:21;;;;;;;4.80;4.30;;;18.00;55.40;;;;;;5030284;28;20851;-72
2022/04/29 09:00:22;;;;;;;3.90;3.60;;;17.80;58.00;;;;;;5031774;28;20453;-72
2022/04/29 09:02:47;;;;;;;6.13;4.47;;;18.00;56.80;;;;;;5031104;28;20419;-72
2022/04/29 09:05:13;;;;;;;6.10;3.87;;;18.00;53.80;;;;;;5031165;28;20407;-71
2022/04/29 09:08:02;;;;;;;4.50;4.10;;;18.40;56.40;;;;;;5030612;28;20218;-72
2022/04/29 09:10:36;;;;;;;5.43;3.80;;;18.60;54.20;;;;;;4997637;28;20660;-71
2022/04/29 09:13:13;;;;;;;10.30;5.10;;;18.80;55.30;;;;;;5012159;28;20439;-73
2022/04/29 09:15:52;;;;;;;6.77;5.10;;;19.00;52.80;;;;;;5012336;28;21053;-72
2022/04/29 09:18:31;;;;;;;6.93;4.60;;;19.20;54.20;;;;;;5030416;28;20439;-73
2022/04/29 09:20:56;;;;;;;6.60;4.77;;;19.20;52.60;;;;;;5012884;28;20483;-72
2022/04/29 09:23:29;;;;;;;4.13;3.73;;;19.40;53.40;;;;;;5030503;28;20812;-72
2022/04/29 09:25:59;;;;;;;8.80;4.13;;;20.30;55.20;;;;;;5030241;28;20207;-72
2022/04/29 09:28:25;;;;;;;8.80;4.13;;;21.00;52.70;;;;;;5030291;28;20446;-72
2022/04/29 09:30:56;;;;;;;5.63;4.00;;;21.10;50.50;;;;;;5030403;28;20990;-72
2022/04/29 09:33:24;;;;;;;5.40;4.10;;;21.30;49.40;;;;;;5030001;28;20168;-72
2022/04/29 09:35:50;;;;;;;4.40;4.00;;;21.50;48.30;;;;;;5029946;28;20509;-72
2022/04/29 09:41:01;;;;;;;3.40;3.00;;;21.60;48.70;;;;;;5029846;28;20492;-73
2022/04/29 09:43:46;;;;;;;5.00;3.73;;;21.00;47.20;;;;;;5011704;28;20461;-71
2022/04/29 09:46:16;;;;;;;4.43;3.57;;;21.60;48.70;;;;;;5029405;28;20916;-72
2022/04/29 09:49:00;;;;;;;4.23;3.93;;;21.90;47.10;;;;;;5029730;28;20431;-72
2022/04/29 09:51:38;;;;;;;4.40;4.00;;;21.90;44.40;;;;;;5029853;28;20528;-72
2022/04/29 09:54:11;;;;;;;3.90;3.50;;;21.90;44.40;;;;;;5029326;28;21140;-72
2022/04/29 09:56:38;;;;;;;8.37;3.70;;;22.10;45.80;;;;;;5011437;28;20433;-72
2022/04/29 09:59:05;;;;;;;3.70;3.40;;;22.00;46.80;;;;;;5010956;28;20894;-72
2022/04/29 10:01:31;;;;;;;8.00;4.50;;;22.10;44.20;;;;;;5029093;28;20585;-72
2022/04/29 10:03:59;;;;;;;9.40;4.50;;;21.70;43.90;;;;;;5011177;28;20429;-72
2022/04/29 10:06:27;;;;;;;4.30;3.90;;;21.60;43.40;;;;;;5028033;28;20933;-73
2022/04/29 10:08:53;;;;;;;6.17;3.83;;;21.40;43.40;;;;;;5028691;28;20439;-71
2022/04/29 10:11:23;;;;;;;7.83;4.83;;;21.30;44.70;;;;;;5011317;28;20427;-72
2022/04/29 10:13:50;;;;;;;7.17;4.40;;;20.80;44.60;;;;;;5028816;28;20423;-72
2022/04/29 10:16:18;;;;;;;6.40;4.50;;;20.90;45.10;;;;;;5028730;28;20438;-72
2022/04/29 10:21:40;;;;;;;4.67;4.27;;;20.90;45.20;;;;;;5028626;28;20467;-73
2022/04/29 10:24:06;;;;;;;4.40;4.00;;;21.00;44.90;;;;;;5028806;28;20424;-72
2022/04/29 10:26:32;;;;;;;4.83;3.60;;;20.60;45.40;;;;;;5010792;28;20442;-73
2022/04/29 10:28:59;;;;;;;5.03;4.50;;;20.80;47.90;;;;;;5028599;28;20203;-72
2022/04/29 10:31:29;;;;;;;11.10;4.40;;;20.50;45.10;;;;;;5028884;28;20420;-75
2022/04/29 10:34:14;;;;;;;7.17;4.80;;;20.60;47.60;;;;;;5029309;28;20426;-76
2022/04/29 10:36:46;;;;;;;5.00;3.93;;;20.50;45.10;;;;;;5028507;28;20435;-75
2022/04/29 10:39:18;;;;;;;4.83;4.30;;;20.50;47.10;;;;;;5028350;28;21029;-74
2022/04/29 10:42:02;;;;;;;5.60;4.03;;;20.80;46.70;;;;;;5028589;28;20831;-76
2022/04/29 10:44:28;;;;;;;5.00;4.60;;;20.90;47.40;;;;;;5010246;28;21042;-75
2022/04/29 10:46:54;;;;;;;8.00;4.90;;;20.70;46.40;;;;;;5028817;28;20416;-75
2022/04/29 10:49:27;;;;;;;5.47;4.77;;;20.70;47.90;;;;;;5033824;28;20567;-75
2022/04/29 10:51:59;;;;;;;4.40;4.00;;;20.50;45.70;;;;;;5028605;28;20226;-74
2022/04/29 10:54:33;;;;;;;10.40;4.10;;;20.40;44.40;;;;;;5027904;28;20427;-75
2022/04/29 10:57:07;;;;;;;5.13;3.90;;;20.40;45.60;;;;;;5027895;28;20424;-75
2022/04/29 11:00:00;;;;;;;5.50;5.00;;;20.80;48.70;;;;;;5027837;28;20427;-74
2022/04/29 11:02:30;;;;;;;6.00;4.67;;;21.10;46.40;;;;;;5027952;28;20503;-74
2022/04/29 11:04:58;;;;;;;6.00;5.50;;;21.50;48.00;;;;;;5027831;28;20469;-74
2022/04/29 11:07:36;;;;;;;7.60;5.57;;;21.30;46.10;;;;;;5027668;28;20427;-75
2022/04/29 11:10:06;;;;;;;8.63;5.50;;;21.00;47.20;;;;;;5010431;28;20433;-74
2022/04/29 11:12:34;;;;;;;9.27;6.53;;;21.00;48.00;;;;;;4977837;28;20445;-74
2022/04/29 11:15:09;;;;;;;7.20;5.57;;;20.70;48.40;;;;;;5027913;28;20420;-75
2022/04/29 11:17:37;;;;;;;10.60;6.50;;;20.40;49.30;;;;;;5027313;28;20889;-74
2022/04/29 11:20:16;;;;;;;5.43;4.90;;;20.80;49.20;;;;;;5027677;28;20605;-76
2022/04/29 11:25:57;;;;;;;7.00;6.30;;;22.20;50.50;;;;;;5027942;28;20437;-74
2022/04/29 11:28:24;;;;;;;7.17;6.30;;;21.70;46.90;;;;;;5027524;28;20449;-75
2022/04/29 11:30:59;;;;;;;7.20;5.40;;;21.70;48.40;;;;;;5027517;28;20427;-74
2022/04/29 11:33:24;;;;;;;8.37;5.77;;;21.30;50.40;;;;;;5027711;28;20501;-74
2022/04/29 11:36:01;;;;;;;5.63;5.20;;;21.60;48.70;;;;;;5009926;28;20753;-75
2022/04/29 11:38:29;;;;;;;11.73;7.17;;;21.50;48.80;;;;;;5027357;28;20200;-76
2022/04/29 11:40:54;;;;;;;8.03;5.90;;;20.80;47.20;;;;;;5009483;28;21070;-75
2022/04/29 11:43:23;;;;;;;7.30;6.70;;;20.90;48.10;;;;;;5009758;28;20767;-74
2022/04/29 11:46:05;;;;;;;11.03;6.53;;;21.30;50.30;;;;;;5009133;28;20191;-75
2022/04/29 11:48:34;;;;;;;6.70;6.00;;;21.90;51.20;;;;;;5027635;28;20422;-75
2022/04/29 11:51:01;;;;;;;15.20;7.63;;;22.00;49.80;;;;;;5027566;28;20441;-75
2022/04/29 11:53:26;;;;;;;9.07;6.73;;;21.70;48.00;;;;;;5027658;28;20992;-74
2022/04/29 11:55:52;;;;;;;8.60;7.13;;;21.60;50.20;;;;;;5009278;28;20521;-74
2022/04/29 11:58:19;;;;;;;5.90;5.40;;;22.10;49.40;;;;;;5027118;28;20216;-75
2022/04/29 12:00:54;;;;;;;8.07;7.27;;;22.70;50.80;;;;;;5026978;28;20467;-75
2022/04/29 12:03:21;;;;;;;6.57;6.07;;;22.10;50.70;;;;;;5026914;28;20428;-75
2022/04/29 12:05:47;;;;;;;6.37;5.70;;;22.10;49.70;;;;;;5027081;28;20737;-75
2022/04/29 12:08:14;;;;;;;6.93;6.33;;;22.40;50.40;;;;;;5027350;28;21014;-76
2022/04/29 12:10:44;;;;;;;9.10;8.30;;;22.40;48.70;;;;;;5009691;28;21117;-76
2022/04/29 12:13:09;;;;;;;9.87;7.90;;;21.70;49.20;;;;;;5027461;28;20430;-76
2022/04/29 12:15:37;;;;;;;7.77;7.07;;;21.80;49.80;;;;;;5027449;28;20946;-75
2022/04/29 12:18:14;;;;;;;9.73;7.23;;;21.20;50.00;;;;;;5009977;28;20206;-75
2022/04/29 12:20:41;;;;;;;6.60;5.77;;;21.30;49.80;;;;;;5027224;28;21027;-76
2022/04/29 12:23:13;;;;;;;5.97;5.33;;;21.70;53.00;;;;;;5009311;28;20415;-75
2022/04/29 12:25:45;;;;;;;8.93;6.00;;;22.00;54.50;;;;;;4992970;28;20535;-76
2022/04/29 12:28:25;;;;;;;7.03;6.33;;;22.20;51.60;;;;;;5026924;28;20435;-76
2022/04/29 12:36:59;;;;;;;7.73;5.77;;;22.00;51.10;;;;;;5030721;28;20942;-75
2022/04/29 12:39:38;;;;;;;7.77;6.97;;;21.80;50.50;;;;;;5030691;28;20520;-75
2022/04/29 12:42:07;;;;;;;7.00;5.47;;;21.70;48.00;;;;;;5012988;28;20434;-76
2022/04/29 12:45:14;;;;;;;6.67;5.20;;;21.50;49.40;;;;;;5030713;28;20427;-75
2022/04/29 12:47:53;;;;;;;7.80;5.70;;;21.60;50.40;;;;;;5030839;28;20433;-75
2022/04/29 12:50:19;;;;;;;6.27;5.67;;;21.40;48.80;;;;;;5031084;28;20422;-76
2022/04/29 12:53:04;;;;;;;5.90;5.40;;;21.20;49.70;;;;;;5012848;28;21001;-76
2022/04/29 12:55:51;;;;;;;9.97;5.50;;;20.90;47.60;;;;;;5030621;28;20424;-76
2022/04/29 12:58:21;;;;;;;6.47;4.50;;;20.30;44.90;;;;;;5030770;28;20452;-75
2022/04/29 13:01:00;;;;;;;6.40;5.87;;;20.40;45.70;;;;;;5030680;28;20944;-75
2022/04/29 13:03:28;;;;;;;6.37;5.00;;;20.50;46.70;;;;;;5012748;28;20418;-76
2022/04/29 13:05:55;;;;;;;5.70;4.40;;;20.90;47.50;;;;;;5013388;28;20506;-76
2022/04/29 13:08:21;;;;;;;7.23;5.27;;;21.20;47.20;;;;;;5030698;28;20830;-76
2022/04/29 13:10:51;;;;;;;5.80;4.43;;;21.20;44.90;;;;;;5013014;28;20421;-76
2022/04/29 13:13:17;;;;;;;6.80;6.10;;;21.60;46.80;;;;;;5012953;28;20235;-73
2022/04/29 13:15:44;;;;;;;8.23;4.73;;;21.70;44.00;;;;;;5030795;28;20427;-73
2022/04/29 13:18:13;;;;;;;8.17;5.30;;;21.60;45.20;;;;;;5032912;28;20967;-73
2022/04/29 13:20:39;;;;;;;6.47;5.87;;;21.80;44.00;;;;;;5035733;28;20469;-73
2022/04/29 13:23:06;;;;;;;8.13;5.17;;;21.50;44.10;;;;;;5014520;28;20510;-73